Xinxian, China
Current Conditions -  °F | °C
As of 5:00 AM on Tuesday 21 Oct 2014 (Local Time) from ZSJN Reporting Station
Few Clouds Few Clouds  
Wind Chill: 57°   Ceiling: Unl
Heat Index: 57°   Visibility: 6mi
Dew Point: 46°   Wind: 4mph
Humidity: 67%   Direction: 50°NE
Pressure: 30.15"   Gusts: NA
Location:  36.03°N, 115.58°E
Report Text: ZSJN 202100Z 05002MPS 020V120 9999 FEW033 14/08 Q1021 NOSIG
Loading
Personal Weather Stations






























Interactive Weather Map
Tropical Storm Tracking
New forecast layout! Learn more

10-Day Weather Forecast

Advertisements
Track Severe Weather on mobile